Time;durP1;ratioP1;P1;durP2;ratioP2;P2;SDS_P1;SDS_P2;PMS_P1;PMS_P2;Temp;Humidity;BMP_temperature;BMP_pressure;BME280_temperature;BME280_humidity;BME280_pressure;Samples;Min_cycle;Max_cycle;Signal;HPM_P1;HPM_P2
2023/03/07 00:11:40;;;;;;;30.90;16.98;;;;;;;0.50;71.96;98890.22;30613654;28;96853;-62
2023/03/07 00:26:40;;;;;;;37.65;18.67;;;;;;;0.54;72.86;98886.34;30611736;28;96647;-62
2023/03/07 00:41:41;;;;;;;35.15;18.02;;;;;;;0.65;72.89;98880.16;30611506;28;97232;-62
2023/03/07 00:56:41;;;;;;;29.67;16.10;;;;;;;0.60;73.33;98870.09;30610726;28;97443;-61
2023/03/07 01:11:42;;;;;;;26.90;13.82;;;;;;;0.60;73.27;98848.28;30609471;28;97444;-62
2023/03/07 01:26:42;;;;;;;35.90;19.42;;;;;;;0.63;74.00;98830.50;30612631;28;97319;-62
2023/03/07 01:41:45;;;;;;;30.98;18.58;;;;;;;0.65;73.85;98810.19;30627642;28;96686;-62
2023/03/07 01:56:46;;;;;;;37.05;20.67;;;;;;;0.45;74.32;98800.72;30626069;28;96771;-62
2023/03/07 02:11:48;;;;;;;64.28;24.15;;;;;;;0.29;74.44;98796.88;30624945;28;96917;-64
2023/03/07 02:26:50;;;;;;;61.58;23.15;;;;;;;0.17;74.84;98787.50;30623576;28;96808;-63
2023/03/07 02:41:54;;;;;;;47.53;23.60;;;;;;;0.20;75.14;98768.06;30620832;28;99089;-63
2023/03/07 02:56:54;;;;;;;87.57;25.55;;;;;;;-0.03;75.03;98750.00;30621397;28;97053;-63
2023/03/07 03:11:54;;;;;;;68.72;22.73;;;;;;;-0.22;75.86;98750.81;30618651;28;96748;-62
2023/03/07 03:26:56;;;;;;;53.25;22.15;;;;;;;-0.37;76.46;98732.06;30617338;28;97419;-62
2023/03/07 03:41:57;;;;;;;47.72;18.92;;;;;;;-0.46;76.64;98720.66;30614925;28;96964;-62
2023/03/07 03:56:57;;;;;;;40.20;20.25;;;;;;;-0.84;76.65;98709.13;30614410;28;97260;-62
2023/03/07 04:11:57;;;;;;;49.10;22.23;;;;;;;-1.13;77.08;98694.19;30612516;28;96725;-62
2023/03/07 04:26:58;;;;;;;33.95;17.52;;;;;;;-1.17;77.92;98692.81;30609632;28;96715;-62
2023/03/07 04:41:58;;;;;;;33.25;16.25;;;;;;;-0.81;78.20;98680.09;30610077;28;96753;-62
2023/03/07 04:56:59;;;;;;;36.50;18.17;;;;;;;-0.55;78.11;98659.50;30609020;28;97465;-63
2023/03/07 05:11:59;;;;;;;31.83;14.88;;;;;;;-0.53;78.03;98641.06;30627403;28;96658;-63
2023/03/07 05:26:59;;;;;;;34.35;16.13;;;;;;;-0.68;78.32;98624.94;30626965;28;97483;-63
2023/03/07 05:42:00;;;;;;;29.40;15.32;;;;;;;-0.85;78.02;98626.44;30624153;28;96716;-62
2023/03/07 05:57:00;;;;;;;21.63;11.93;;;;;;;-0.62;78.89;98594.78;30622889;28;96949;-63
2023/03/07 06:12:00;;;;;;;15.57;9.73;;;;;;;-0.20;78.62;98600.53;30621529;28;96689;-63
2023/03/07 06:27:01;;;;;;;19.58;10.90;;;;;;;0.01;77.88;98585.63;30620982;28;96669;-63
2023/03/07 06:42:01;;;;;;;18.58;11.40;;;;;;;0.38;77.79;98587.41;30616998;28;97275;-64
2023/03/07 06:57:02;;;;;;;22.92;13.85;;;;;;;1.32;77.72;98560.88;30617167;28;96597;-63
2023/03/07 07:12:04;;;;;;;12.82;8.15;;;;;;;2.06;75.99;98549.25;30615643;28;97477;-63
2023/03/07 07:27:05;;;;;;;12.20;7.40;;;;;;;2.75;74.54;98543.94;30615328;28;96680;-62
2023/03/07 07:42:06;;;;;;;24.20;11.95;;;;;;;3.42;73.49;98538.59;30613665;28;97409;-62
2023/03/07 07:57:06;;;;;;;16.38;10.85;;;;;;;4.15;71.38;98530.75;30612085;28;96724;-63
2023/03/07 08:12:10;;;;;;;20.75;11.15;;;;;;;5.04;70.60;98498.81;30611799;28;96713;-63
2023/03/07 08:27:10;;;;;;;20.53;12.17;;;;;;;5.85;67.51;98492.97;30610294;28;96610;-63
2023/03/07 08:42:11;;;;;;;10.57;7.40;;;;;;;6.73;63.15;98488.63;30619543;28;96547;-63
2023/03/07 08:57:11;;;;;;;14.18;7.82;;;;;;;6.94;60.99;98471.09;30628019;28;97279;-63
2023/03/07 09:12:12;;;;;;;11.98;6.57;;;;;;;12.58;48.72;98462.09;30627891;28;96711;-63
2023/03/07 09:27:12;;;;;;;13.32;7.30;;;;;;;14.74;42.29;98434.09;30626474;28;97895;-63
2023/03/07 09:42:30;;;;;;;18.38;9.10;;;;;;;9.78;43.57;98450.59;30625550;28;96766;-63
2023/03/07 09:57:36;;;;;;;9.20;6.03;;;;;;;8.19;48.03;98452.00;30624564;28;96772;-63
2023/03/07 10:13:15;;;;;;;10.97;6.63;;;;;;;8.14;48.19;98437.50;30623006;28;96676;-64
2023/03/07 10:28:28;;;;;;;12.37;7.93;;;;;;;8.27;47.63;98427.97;30620115;28;97044;-64
2023/03/07 10:43:32;;;;;;;13.33;8.73;;;;;;;7.60;48.80;98422.34;30618944;28;97646;-63
2023/03/07 10:58:32;;;;;;;10.77;5.77;;;;;;;6.69;49.78;98433.63;30619019;28;96878;-64
2023/03/07 11:13:33;;;;;;;9.73;5.13;;;;;;;5.90;52.52;98400.75;30617447;28;97193;-64
2023/03/07 11:28:34;;;;;;;6.78;4.45;;;;;;;5.82;52.65;98382.34;30615711;28;96730;-63
2023/03/07 11:43:53;;;;;;;9.80;5.07;;;;;;;5.82;52.72;98371.78;30614411;28;96648;-64
2023/03/07 11:59:12;;;;;;;8.07;4.68;;;;;;;5.81;53.36;98352.47;30613418;28;97304;-63
2023/03/07 12:14:41;;;;;;;7.78;4.85;;;;;;;6.43;52.19;98347.69;30611271;28;97075;-63
2023/03/07 12:29:51;;;;;;;12.43;5.55;;;;;;;6.31;52.37;98331.47;30610583;28;97237;-64
2023/03/07 12:45:06;;;;;;;5.30;3.83;;;;;;;6.13;52.55;98307.31;30609069;28;97427;-63
2023/03/07 13:00:12;;;;;;;7.07;4.45;;;;;;;8.42;49.78;98309.22;30603909;28;96663;-62
2023/03/07 13:15:18;;;;;;;5.60;3.42;;;;;;;7.29;49.69;98299.06;30605656;28;97333;-65
2023/03/07 13:30:19;;;;;;;5.78;3.58;;;;;;;6.41;51.55;98302.91;30620559;28;96883;-64
2023/03/07 13:45:37;;;;;;;7.13;4.35;;;;;;;6.33;52.86;98276.59;30623225;28;97220;-64
2023/03/07 14:00:48;;;;;;;7.60;3.83;;;;;;;6.53;52.87;98260.88;30624525;28;96984;-66
2023/03/07 14:16:05;;;;;;;6.75;4.05;;;;;;;6.47;53.36;98242.31;30621634;28;96791;-64
2023/03/07 14:31:21;;;;;;;5.53;3.50;;;;;;;6.38;53.18;98244.28;30620071;28;97054;-63
2023/03/07 14:46:32;;;;;;;7.70;4.75;;;;;;;6.29;54.64;98232.19;30619793;28;96789;-64
2023/03/07 15:01:39;;;;;;;7.32;3.67;;;;;;;6.08;54.40;98215.34;30618938;28;96720;-63
2023/03/07 15:16:45;;;;;;;5.65;3.38;;;;;;;5.96;54.63;98206.25;30615467;28;96698;-63
2023/03/07 15:31:50;;;;;;;10.18;5.25;;;;;;;5.84;55.16;98198.84;30613829;28;96691;-63
2023/03/07 15:46:53;;;;;;;9.23;4.20;;;;;;;5.76;55.44;98178.63;30613130;28;97011;-63
2023/03/07 16:01:53;;;;;;;8.38;3.55;;;;;;;5.68;55.66;98176.09;30613493;28;96790;-62
2023/03/07 16:16:58;;;;;;;8.57;4.63;;;;;;;5.55;56.35;98160.13;30611825;28;96677;-62
2023/03/07 16:32:00;;;;;;;;;;;;;;;5.53;56.03;98168.22;30611466;28;97307;-62
2023/03/07 16:47:13;;;;;;;6.43;4.22;;;;;;;5.35;56.15;98159.94;30610531;28;96627;-62
2023/03/07 17:02:18;;;;;;;10.38;5.93;;;;;;;5.19;56.77;98167.03;30600195;28;97780;-63
2023/03/07 17:17:26;;;;;;;10.80;6.00;;;;;;;5.03;57.23;98189.22;30627560;28;96776;-64
2023/03/07 17:32:26;;;;;;;9.52;5.72;;;;;;;4.93;57.83;98187.84;30626904;28;97280;-64
2023/03/07 17:47:27;;;;;;;7.35;3.78;;;;;;;4.91;57.99;98195.97;30626247;28;96702;-63
2023/03/07 18:02:27;;;;;;;6.07;3.38;;;;;;;4.88;58.08;98196.28;30627086;28;97417;-62
2023/03/07 18:17:27;;;;;;;6.85;4.45;;;;;;;4.95;57.61;98196.38;30622648;28;96666;-61
2023/03/07 18:32:29;;;;;;;7.35;4.57;;;;;;;4.86;57.69;98178.00;30621635;28;97446;-62
2023/03/07 18:47:30;;;;;;;6.50;4.13;;;;;;;4.85;57.54;98188.75;30619157;28;96764;-62
2023/03/07 19:02:30;;;;;;;8.57;4.78;;;;;;;4.78;57.48;98177.31;30617852;28;97141;-65
2023/03/07 19:17:31;;;;;;;5.72;2.70;;;;;;;4.79;57.27;98189.50;30616173;28;96876;-63
2023/03/07 19:32:32;;;;;;;7.68;4.13;;;;;;;4.77;57.20;98194.13;30617553;28;97035;-63
2023/03/07 19:47:32;;;;;;;7.43;3.78;;;;;;;4.81;57.07;98187.47;30614991;28;97249;-63
2023/03/07 20:02:33;;;;;;;11.35;5.38;;;;;;;4.77;57.08;98186.22;30613286;28;97037;-62
2023/03/07 20:17:33;;;;;;;6.60;3.55;;;;;;;4.69;57.24;98201.13;30612033;28;96610;-64
2023/03/07 20:32:34;;;;;;;11.32;5.15;;;;;;;4.64;57.42;98213.22;30611827;28;97050;-64
2023/03/07 20:47:37;;;;;;;12.63;4.25;;;;;;;4.62;57.41;98213.41;30609574;28;97375;-63
2023/03/07 21:02:38;;;;;;;8.93;4.85;;;;;;;4.58;57.23;98214.78;30609140;28;96666;-64
2023/03/07 21:17:38;;;;;;;11.73;6.13;;;;;;;4.54;57.43;98232.75;30607726;28;97247;-63
2023/03/07 21:32:39;;;;;;;10.07;4.75;;;;;;;4.64;57.65;98285.25;30607817;28;96644;-64
2023/03/07 21:47:40;;;;;;;8.77;4.25;;;;;;;4.04;59.20;98290.31;30616577;28;96967;-63
2023/03/07 22:02:40;;;;;;;7.32;4.15;;;;;;;3.68;60.69;98298.78;30626529;28;97403;-63
2023/03/07 22:17:41;;;;;;;6.70;4.25;;;;;;;3.55;61.57;98306.41;30624814;28;96908;-63
2023/03/07 22:32:44;;;;;;;8.07;4.43;;;;;;;3.45;62.25;98316.31;30623758;28;96699;-64
2023/03/07 22:47:44;;;;;;;5.85;3.08;;;;;;;3.27;63.32;98304.22;30623017;28;97229;-64
2023/03/07 23:02:45;;;;;;;6.88;3.75;;;;;;;3.11;64.20;98326.13;30620639;28;96658;-64
2023/03/07 23:17:45;;;;;;;9.07;4.60;;;;;;;2.93;64.66;98333.41;30620231;28;97179;-63
2023/03/07 23:32:46;;;;;;;6.22;3.10;;;;;;;2.74;65.58;98347.72;30618774;28;96811;-64
2023/03/07 23:47:47;;;;;;;5.93;3.17;;;;;;;2.48;66.32;98365.28;30617359;28;97176;-63
